sensor_id;sensor_type;location;lat;lon;timestamp;P1;durP1;ratioP1;P2;durP2;ratioP2
58637;SDS011;54976;51.510;7.522;2023-05-10T00:00:01;4.72;;;2.65;;
58637;SDS011;54976;51.510;7.522;2023-05-10T00:03:02;6.10;;;3.10;;
58637;SDS011;54976;51.510;7.522;2023-05-10T00:06:04;4.70;;;2.83;;
58637;SDS011;54976;51.510;7.522;2023-05-10T00:09:05;3.65;;;2.90;;
58637;SDS011;54976;51.510;7.522;2023-05-10T00:12:06;4.13;;;3.22;;
58637;SDS011;54976;51.510;7.522;2023-05-10T00:15:07;5.60;;;3.25;;
58637;SDS011;54976;51.510;7.522;2023-05-10T00:18:08;8.38;;;3.20;;
58637;SDS011;54976;51.510;7.522;2023-05-10T00:21:09;4.78;;;3.30;;
58637;SDS011;54976;51.510;7.522;2023-05-10T00:24:09;4.70;;;3.33;;
58637;SDS011;54976;51.510;7.522;2023-05-10T00:27:10;5.40;;;3.25;;
58637;SDS011;54976;51.510;7.522;2023-05-10T00:30:10;7.57;;;3.95;;
58637;SDS011;54976;51.510;7.522;2023-05-10T00:33:11;6.03;;;3.97;;
58637;SDS011;54976;51.510;7.522;2023-05-10T00:36:12;5.90;;;4.20;;
58637;SDS011;54976;51.510;7.522;2023-05-10T00:39:13;6.50;;;4.05;;
58637;SDS011;54976;51.510;7.522;2023-05-10T00:42:13;6.63;;;4.60;;
58637;SDS011;54976;51.510;7.522;2023-05-10T00:45:14;9.93;;;5.45;;
58637;SDS011;54976;51.510;7.522;2023-05-10T00:48:14;9.48;;;5.18;;
58637;SDS011;54976;51.510;7.522;2023-05-10T00:51:15;11.52;;;5.60;;
58637;SDS011;54976;51.510;7.522;2023-05-10T00:54:16;8.95;;;5.10;;
58637;SDS011;54976;51.510;7.522;2023-05-10T00:57:17;9.07;;;5.97;;
58637;SDS011;54976;51.510;7.522;2023-05-10T01:00:17;14.27;;;5.78;;
58637;SDS011;54976;51.510;7.522;2023-05-10T01:03:18;15.93;;;7.25;;
58637;SDS011;54976;51.510;7.522;2023-05-10T01:06:19;17.48;;;6.93;;
58637;SDS011;54976;51.510;7.522;2023-05-10T01:09:20;12.40;;;7.18;;
58637;SDS011;54976;51.510;7.522;2023-05-10T01:12:21;19.60;;;8.38;;
58637;SDS011;54976;51.510;7.522;2023-05-10T01:15:22;15.05;;;7.30;;
58637;SDS011;54976;51.510;7.522;2023-05-10T01:18:23;15.18;;;7.40;;
58637;SDS011;54976;51.510;7.522;2023-05-10T01:34:47;27.88;;;10.82;;
58637;SDS011;54976;51.510;7.522;2023-05-10T01:41:47;23.70;;;11.75;;
58637;SDS011;54976;51.510;7.522;2023-05-10T01:48:05;25.02;;;11.55;;
58637;SDS011;54976;51.510;7.522;2023-05-10T01:51:06;26.05;;;11.15;;
58637;SDS011;54976;51.510;7.522;2023-05-10T01:54:08;27.35;;;11.80;;
58637;SDS011;54976;51.510;7.522;2023-05-10T01:57:12;40.58;;;13.35;;
58637;SDS011;54976;51.510;7.522;2023-05-10T02:00:15;32.58;;;13.10;;
58637;SDS011;54976;51.510;7.522;2023-05-10T02:03:17;23.08;;;10.80;;
58637;SDS011;54976;51.510;7.522;2023-05-10T02:06:21;24.27;;;11.17;;
58637;SDS011;54976;51.510;7.522;2023-05-10T02:09:23;21.23;;;10.80;;
58637;SDS011;54976;51.510;7.522;2023-05-10T02:12:26;20.92;;;11.57;;
58637;SDS011;54976;51.510;7.522;2023-05-10T02:15:28;46.17;;;14.00;;
58637;SDS011;54976;51.510;7.522;2023-05-10T02:18:31;29.75;;;12.10;;
58637;SDS011;54976;51.510;7.522;2023-05-10T02:21:33;22.05;;;11.32;;
58637;SDS011;54976;51.510;7.522;2023-05-10T02:24:34;23.65;;;9.57;;
58637;SDS011;54976;51.510;7.522;2023-05-10T02:27:37;19.48;;;9.18;;
58637;SDS011;54976;51.510;7.522;2023-05-10T02:30:38;23.33;;;9.80;;
58637;SDS011;54976;51.510;7.522;2023-05-10T02:33:39;19.83;;;8.95;;
58637;SDS011;54976;51.510;7.522;2023-05-10T02:36:41;17.85;;;8.65;;
58637;SDS011;54976;51.510;7.522;2023-05-10T02:39:42;19.30;;;8.20;;
58637;SDS011;54976;51.510;7.522;2023-05-10T02:42:45;14.95;;;7.43;;
58637;SDS011;54976;51.510;7.522;2023-05-10T02:45:48;19.17;;;7.88;;
58637;SDS011;54976;51.510;7.522;2023-05-10T02:48:49;16.08;;;7.65;;
58637;SDS011;54976;51.510;7.522;2023-05-10T02:51:55;15.18;;;7.00;;
58637;SDS011;54976;51.510;7.522;2023-05-10T02:55:00;21.50;;;7.28;;
58637;SDS011;54976;51.510;7.522;2023-05-10T02:58:04;14.63;;;7.03;;
58637;SDS011;54976;51.510;7.522;2023-05-10T03:01:05;13.85;;;6.82;;
58637;SDS011;54976;51.510;7.522;2023-05-10T03:04:07;16.13;;;6.03;;
58637;SDS011;54976;51.510;7.522;2023-05-10T03:07:08;11.20;;;4.30;;
58637;SDS011;54976;51.510;7.522;2023-05-10T03:10:09;11.23;;;4.10;;
58637;SDS011;54976;51.510;7.522;2023-05-10T03:13:22;8.90;;;4.25;;
58637;SDS011;54976;51.510;7.522;2023-05-10T03:16:43;8.82;;;3.63;;
58637;SDS011;54976;51.510;7.522;2023-05-10T03:19:56;8.45;;;4.05;;
58637;SDS011;54976;51.510;7.522;2023-05-10T03:26:37;9.75;;;4.20;;
58637;SDS011;54976;51.510;7.522;2023-05-10T03:29:40;9.35;;;4.28;;
58637;SDS011;54976;51.510;7.522;2023-05-10T03:32:41;10.75;;;4.55;;
58637;SDS011;54976;51.510;7.522;2023-05-10T03:35:42;12.50;;;4.55;;
58637;SDS011;54976;51.510;7.522;2023-05-10T03:38:45;9.43;;;4.25;;
58637;SDS011;54976;51.510;7.522;2023-05-10T03:41:46;8.10;;;3.90;;
58637;SDS011;54976;51.510;7.522;2023-05-10T03:44:46;11.07;;;4.22;;
58637;SDS011;54976;51.510;7.522;2023-05-10T03:47:49;11.40;;;3.95;;
58637;SDS011;54976;51.510;7.522;2023-05-10T03:50:49;7.85;;;3.10;;
58637;SDS011;54976;51.510;7.522;2023-05-10T03:53:50;16.27;;;4.80;;
58637;SDS011;54976;51.510;7.522;2023-05-10T03:56:50;14.63;;;6.10;;
58637;SDS011;54976;51.510;7.522;2023-05-10T03:59:51;19.00;;;6.82;;
58637;SDS011;54976;51.510;7.522;2023-05-10T04:02:52;20.70;;;8.23;;
58637;SDS011;54976;51.510;7.522;2023-05-10T04:05:59;24.00;;;10.10;;
58637;SDS011;54976;51.510;7.522;2023-05-10T04:09:01;27.40;;;12.00;;
58637;SDS011;54976;51.510;7.522;2023-05-10T04:12:04;23.48;;;10.82;;
58637;SDS011;54976;51.510;7.522;2023-05-10T04:15:05;31.55;;;11.55;;
58637;SDS011;54976;51.510;7.522;2023-05-10T04:18:06;27.88;;;11.75;;
58637;SDS011;54976;51.510;7.522;2023-05-10T04:21:13;33.50;;;13.85;;
58637;SDS011;54976;51.510;7.522;2023-05-10T04:24:14;53.85;;;14.77;;
58637;SDS011;54976;51.510;7.522;2023-05-10T04:27:14;36.72;;;15.07;;
58637;SDS011;54976;51.510;7.522;2023-05-10T04:30:15;35.03;;;14.75;;
58637;SDS011;54976;51.510;7.522;2023-05-10T04:33:16;41.85;;;16.88;;
58637;SDS011;54976;51.510;7.522;2023-05-10T04:36:16;45.63;;;16.55;;
58637;SDS011;54976;51.510;7.522;2023-05-10T04:39:17;39.83;;;16.08;;
58637;SDS011;54976;51.510;7.522;2023-05-10T04:42:18;38.30;;;16.20;;
58637;SDS011;54976;51.510;7.522;2023-05-10T04:45:18;33.80;;;15.75;;
58637;SDS011;54976;51.510;7.522;2023-05-10T04:48:19;42.83;;;16.48;;
58637;SDS011;54976;51.510;7.522;2023-05-10T04:51:19;39.13;;;16.30;;
58637;SDS011;54976;51.510;7.522;2023-05-10T04:54:20;37.40;;;15.20;;
58637;SDS011;54976;51.510;7.522;2023-05-10T04:57:21;38.33;;;15.75;;
58637;SDS011;54976;51.510;7.522;2023-05-10T05:00:21;35.28;;;14.50;;
58637;SDS011;54976;51.510;7.522;2023-05-10T05:03:23;42.55;;;15.73;;
58637;SDS011;54976;51.510;7.522;2023-05-10T05:06:23;44.40;;;16.95;;
58637;SDS011;54976;51.510;7.522;2023-05-10T05:09:24;50.08;;;17.23;;
58637;SDS011;54976;51.510;7.522;2023-05-10T05:12:25;42.25;;;17.15;;
58637;SDS011;54976;51.510;7.522;2023-05-10T05:15:26;44.35;;;18.92;;
58637;SDS011;54976;51.510;7.522;2023-05-10T05:18:27;71.32;;;19.77;;
58637;SDS011;54976;51.510;7.522;2023-05-10T05:21:27;52.28;;;19.60;;
58637;SDS011;54976;51.510;7.522;2023-05-10T05:24:28;47.05;;;20.50;;
58637;SDS011;54976;51.510;7.522;2023-05-10T05:27:29;46.53;;;21.13;;
58637;SDS011;54976;51.510;7.522;2023-05-10T05:30:33;66.30;;;21.57;;
58637;SDS011;54976;51.510;7.522;2023-05-10T05:33:34;56.95;;;22.70;;
58637;SDS011;54976;51.510;7.522;2023-05-10T05:36:35;50.88;;;22.52;;
58637;SDS011;54976;51.510;7.522;2023-05-10T05:39:38;62.30;;;23.95;;
58637;SDS011;54976;51.510;7.522;2023-05-10T05:42:38;141.15;;;27.70;;
58637;SDS011;54976;51.510;7.522;2023-05-10T05:45:39;63.00;;;23.50;;
58637;SDS011;54976;51.510;7.522;2023-05-10T05:48:40;57.95;;;23.60;;
58637;SDS011;54976;51.510;7.522;2023-05-10T05:51:40;58.70;;;23.98;;
58637;SDS011;54976;51.510;7.522;2023-05-10T05:54:41;53.25;;;23.70;;
58637;SDS011;54976;51.510;7.522;2023-05-10T05:57:42;63.38;;;24.90;;
58637;SDS011;54976;51.510;7.522;2023-05-10T06:00:42;54.78;;;24.33;;
58637;SDS011;54976;51.510;7.522;2023-05-10T06:03:43;50.85;;;24.23;;
58637;SDS011;54976;51.510;7.522;2023-05-10T06:06:44;57.25;;;25.25;;
58637;SDS011;54976;51.510;7.522;2023-05-10T06:09:44;57.97;;;25.23;;
58637;SDS011;54976;51.510;7.522;2023-05-10T06:12:45;65.60;;;26.10;;
58637;SDS011;54976;51.510;7.522;2023-05-10T06:15:45;62.25;;;26.42;;
58637;SDS011;54976;51.510;7.522;2023-05-10T06:18:46;52.60;;;25.77;;
58637;SDS011;54976;51.510;7.522;2023-05-10T06:21:47;54.83;;;25.25;;
58637;SDS011;54976;51.510;7.522;2023-05-10T06:24:47;50.75;;;26.13;;
58637;SDS011;54976;51.510;7.522;2023-05-10T06:27:48;51.75;;;25.67;;
58637;SDS011;54976;51.510;7.522;2023-05-10T06:30:49;52.15;;;26.85;;
58637;SDS011;54976;51.510;7.522;2023-05-10T06:33:49;53.38;;;25.98;;
58637;SDS011;54976;51.510;7.522;2023-05-10T06:36:50;47.80;;;25.58;;
58637;SDS011;54976;51.510;7.522;2023-05-10T06:39:51;50.00;;;26.70;;
58637;SDS011;54976;51.510;7.522;2023-05-10T06:42:52;71.18;;;28.42;;
58637;SDS011;54976;51.510;7.522;2023-05-10T06:45:52;59.50;;;29.00;;
58637;SDS011;54976;51.510;7.522;2023-05-10T06:48:53;59.22;;;28.13;;
58637;SDS011;54976;51.510;7.522;2023-05-10T06:51:55;66.53;;;29.48;;
58637;SDS011;54976;51.510;7.522;2023-05-10T06:54:56;72.82;;;30.00;;
58637;SDS011;54976;51.510;7.522;2023-05-10T06:57:57;62.58;;;29.48;;
58637;SDS011;54976;51.510;7.522;2023-05-10T07:01:01;55.08;;;26.52;;
58637;SDS011;54976;51.510;7.522;2023-05-10T07:04:03;72.18;;;30.92;;
58637;SDS011;54976;51.510;7.522;2023-05-10T07:07:03;67.80;;;31.35;;
58637;SDS011;54976;51.510;7.522;2023-05-10T07:10:04;84.53;;;31.45;;
58637;SDS011;54976;51.510;7.522;2023-05-10T07:13:05;60.50;;;27.40;;
58637;SDS011;54976;51.510;7.522;2023-05-10T07:16:06;55.40;;;27.38;;
58637;SDS011;54976;51.510;7.522;2023-05-10T07:19:07;58.03;;;28.73;;
58637;SDS011;54976;51.510;7.522;2023-05-10T07:22:08;50.75;;;26.67;;
58637;SDS011;54976;51.510;7.522;2023-05-10T07:25:08;43.17;;;24.95;;
58637;SDS011;54976;51.510;7.522;2023-05-10T07:28:09;41.08;;;25.45;;
58637;SDS011;54976;51.510;7.522;2023-05-10T07:31:13;38.65;;;23.98;;
58637;SDS011;54976;51.510;7.522;2023-05-10T07:34:14;31.40;;;22.20;;
58637;SDS011;54976;51.510;7.522;2023-05-10T07:37:15;34.72;;;23.33;;
58637;SDS011;54976;51.510;7.522;2023-05-10T07:40:15;38.15;;;25.05;;
58637;SDS011;54976;51.510;7.522;2023-05-10T07:43:16;41.25;;;24.25;;
58637;SDS011;54976;51.510;7.522;2023-05-10T07:46:16;38.33;;;24.23;;
58637;SDS011;54976;51.510;7.522;2023-05-10T07:49:19;38.03;;;24.05;;
58637;SDS011;54976;51.510;7.522;2023-05-10T07:52:19;39.08;;;23.63;;
58637;SDS011;54976;51.510;7.522;2023-05-10T07:55:20;33.58;;;23.23;;
58637;SDS011;54976;51.510;7.522;2023-05-10T07:58:24;36.90;;;23.65;;
58637;SDS011;54976;51.510;7.522;2023-05-10T08:01:25;35.92;;;24.08;;
58637;SDS011;54976;51.510;7.522;2023-05-10T08:04:27;37.50;;;22.65;;
58637;SDS011;54976;51.510;7.522;2023-05-10T08:07:27;33.10;;;21.77;;
58637;SDS011;54976;51.510;7.522;2023-05-10T08:10:28;36.03;;;21.77;;
58637;SDS011;54976;51.510;7.522;2023-05-10T08:13:28;30.85;;;20.25;;
58637;SDS011;54976;51.510;7.522;2023-05-10T08:16:29;34.88;;;21.17;;
58637;SDS011;54976;51.510;7.522;2023-05-10T08:19:30;34.67;;;20.52;;
58637;SDS011;54976;51.510;7.522;2023-05-10T08:22:30;35.30;;;20.33;;
58637;SDS011;54976;51.510;7.522;2023-05-10T08:25:31;35.05;;;19.85;;
58637;SDS011;54976;51.510;7.522;2023-05-10T08:28:31;38.33;;;19.85;;
58637;SDS011;54976;51.510;7.522;2023-05-10T08:31:32;36.30;;;19.33;;
58637;SDS011;54976;51.510;7.522;2023-05-10T08:34:33;30.30;;;18.33;;
58637;SDS011;54976;51.510;7.522;2023-05-10T08:37:33;30.25;;;18.80;;
58637;SDS011;54976;51.510;7.522;2023-05-10T08:40:34;30.45;;;18.55;;
58637;SDS011;54976;51.510;7.522;2023-05-10T08:43:36;30.70;;;18.70;;
58637;SDS011;54976;51.510;7.522;2023-05-10T08:46:38;32.17;;;20.73;;
58637;SDS011;54976;51.510;7.522;2023-05-10T08:49:45;35.53;;;21.58;;
58637;SDS011;54976;51.510;7.522;2023-05-10T08:52:50;35.70;;;22.42;;
58637;SDS011;54976;51.510;7.522;2023-05-10T08:55:55;36.10;;;22.45;;
58637;SDS011;54976;51.510;7.522;2023-05-10T08:58:56;39.42;;;23.65;;
58637;SDS011;54976;51.510;7.522;2023-05-10T09:01:57;32.53;;;18.45;;
58637;SDS011;54976;51.510;7.522;2023-05-10T09:04:59;30.23;;;18.38;;
58637;SDS011;54976;51.510;7.522;2023-05-10T09:08:00;29.52;;;14.70;;
58637;SDS011;54976;51.510;7.522;2023-05-10T09:11:00;20.02;;;11.55;;
58637;SDS011;54976;51.510;7.522;2023-05-10T09:14:01;26.17;;;12.65;;
58637;SDS011;54976;51.510;7.522;2023-05-10T09:17:02;20.50;;;11.10;;
58637;SDS011;54976;51.510;7.522;2023-05-10T09:20:03;22.08;;;12.13;;
58637;SDS011;54976;51.510;7.522;2023-05-10T09:23:05;29.00;;;14.20;;
58637;SDS011;54976;51.510;7.522;2023-05-10T09:26:06;27.88;;;16.08;;
58637;SDS011;54976;51.510;7.522;2023-05-10T09:29:07;32.10;;;17.48;;
58637;SDS011;54976;51.510;7.522;2023-05-10T09:32:08;27.30;;;17.67;;
58637;SDS011;54976;51.510;7.522;2023-05-10T09:35:12;36.17;;;17.77;;
58637;SDS011;54976;51.510;7.522;2023-05-10T09:38:17;30.05;;;16.08;;
58637;SDS011;54976;51.510;7.522;2023-05-10T09:41:19;26.73;;;16.30;;
58637;SDS011;54976;51.510;7.522;2023-05-10T09:44:21;26.13;;;15.32;;
58637;SDS011;54976;51.510;7.522;2023-05-10T09:47:21;24.63;;;15.95;;
58637;SDS011;54976;51.510;7.522;2023-05-10T09:50:22;29.30;;;15.52;;
58637;SDS011;54976;51.510;7.522;2023-05-10T09:53:23;22.58;;;14.38;;
58637;SDS011;54976;51.510;7.522;2023-05-10T09:56:33;24.48;;;14.98;;
58637;SDS011;54976;51.510;7.522;2023-05-10T09:59:42;21.80;;;14.40;;
58637;SDS011;54976;51.510;7.522;2023-05-10T10:02:43;21.88;;;13.98;;
58637;SDS011;54976;51.510;7.522;2023-05-10T10:05:46;20.73;;;13.35;;
58637;SDS011;54976;51.510;7.522;2023-05-10T10:08:48;17.50;;;12.75;;
58637;SDS011;54976;51.510;7.522;2023-05-10T10:11:49;15.95;;;12.00;;
58637;SDS011;54976;51.510;7.522;2023-05-10T10:14:50;16.02;;;10.93;;
58637;SDS011;54976;51.510;7.522;2023-05-10T10:17:51;16.17;;;10.18;;
58637;SDS011;54976;51.510;7.522;2023-05-10T10:20:53;17.40;;;9.57;;
58637;SDS011;54976;51.510;7.522;2023-05-10T10:23:54;11.10;;;8.05;;
58637;SDS011;54976;51.510;7.522;2023-05-10T10:26:57;11.13;;;7.55;;
58637;SDS011;54976;51.510;7.522;2023-05-10T10:36:47;10.65;;;6.88;;
58637;SDS011;54976;51.510;7.522;2023-05-10T10:39:48;13.57;;;6.70;;
58637;SDS011;54976;51.510;7.522;2023-05-10T10:42:50;10.35;;;6.50;;
58637;SDS011;54976;51.510;7.522;2023-05-10T10:49:14;10.48;;;6.50;;
58637;SDS011;54976;51.510;7.522;2023-05-10T10:52:33;12.15;;;7.32;;
58637;SDS011;54976;51.510;7.522;2023-05-10T10:55:35;14.45;;;7.03;;
58637;SDS011;54976;51.510;7.522;2023-05-10T10:58:51;10.20;;;6.75;;
58637;SDS011;54976;51.510;7.522;2023-05-10T11:01:53;11.00;;;7.72;;
58637;SDS011;54976;51.510;7.522;2023-05-10T11:04:53;13.32;;;8.05;;
58637;SDS011;54976;51.510;7.522;2023-05-10T11:07:58;14.00;;;8.38;;
58637;SDS011;54976;51.510;7.522;2023-05-10T11:14:06;17.27;;;9.63;;
58637;SDS011;54976;51.510;7.522;2023-05-10T11:17:23;19.85;;;11.95;;
58637;SDS011;54976;51.510;7.522;2023-05-10T11:20:28;25.00;;;14.20;;
58637;SDS011;54976;51.510;7.522;2023-05-10T11:26:44;25.52;;;14.82;;
58637;SDS011;54976;51.510;7.522;2023-05-10T11:29:45;18.35;;;10.48;;
58637;SDS011;54976;51.510;7.522;2023-05-10T11:32:46;17.80;;;10.18;;
58637;SDS011;54976;51.510;7.522;2023-05-10T11:35:47;16.02;;;9.25;;
58637;SDS011;54976;51.510;7.522;2023-05-10T11:38:48;14.45;;;8.32;;
58637;SDS011;54976;51.510;7.522;2023-05-10T11:41:48;15.52;;;9.32;;
58637;SDS011;54976;51.510;7.522;2023-05-10T11:44:49;16.50;;;9.27;;
58637;SDS011;54976;51.510;7.522;2023-05-10T11:47:50;15.10;;;10.02;;
58637;SDS011;54976;51.510;7.522;2023-05-10T11:50:51;19.27;;;9.98;;
58637;SDS011;54976;51.510;7.522;2023-05-10T11:53:53;16.08;;;11.60;;
58637;SDS011;54976;51.510;7.522;2023-05-10T11:56:55;18.33;;;12.63;;
58637;SDS011;54976;51.510;7.522;2023-05-10T11:59:58;15.40;;;12.32;;
58637;SDS011;54976;51.510;7.522;2023-05-10T12:03:00;15.38;;;11.23;;
58637;SDS011;54976;51.510;7.522;2023-05-10T12:06:01;19.42;;;12.88;;
58637;SDS011;54976;51.510;7.522;2023-05-10T12:09:05;19.08;;;12.25;;
58637;SDS011;54976;51.510;7.522;2023-05-10T12:12:07;18.08;;;11.32;;
58637;SDS011;54976;51.510;7.522;2023-05-10T12:15:12;18.83;;;10.23;;
58637;SDS011;54976;51.510;7.522;2023-05-10T12:18:22;17.83;;;8.70;;
58637;SDS011;54976;51.510;7.522;2023-05-10T12:21:24;17.20;;;9.50;;
58637;SDS011;54976;51.510;7.522;2023-05-10T12:24:26;19.48;;;10.75;;
58637;SDS011;54976;51.510;7.522;2023-05-10T12:27:31;13.95;;;9.57;;
58637;SDS011;54976;51.510;7.522;2023-05-10T12:30:32;14.27;;;9.23;;
58637;SDS011;54976;51.510;7.522;2023-05-10T12:33:43;17.60;;;9.38;;
58637;SDS011;54976;51.510;7.522;2023-05-10T12:36:45;20.80;;;9.23;;
58637;SDS011;54976;51.510;7.522;2023-05-10T12:39:49;15.32;;;9.48;;
58637;SDS011;54976;51.510;7.522;2023-05-10T12:42:50;16.90;;;9.63;;
58637;SDS011;54976;51.510;7.522;2023-05-10T12:45:51;18.05;;;9.75;;
58637;SDS011;54976;51.510;7.522;2023-05-10T12:48:51;12.63;;;8.48;;
58637;SDS011;54976;51.510;7.522;2023-05-10T12:51:54;11.90;;;8.25;;
58637;SDS011;54976;51.510;7.522;2023-05-10T12:54:55;11.15;;;7.47;;
58637;SDS011;54976;51.510;7.522;2023-05-10T12:57:56;10.80;;;6.65;;
58637;SDS011;54976;51.510;7.522;2023-05-10T13:00:57;14.38;;;7.60;;
58637;SDS011;54976;51.510;7.522;2023-05-10T13:03:59;10.00;;;6.70;;
58637;SDS011;54976;51.510;7.522;2023-05-10T13:07:00;9.63;;;6.45;;
58637;SDS011;54976;51.510;7.522;2023-05-10T13:10:00;14.75;;;7.22;;
58637;SDS011;54976;51.510;7.522;2023-05-10T13:13:01;13.40;;;6.97;;
58637;SDS011;54976;51.510;7.522;2023-05-10T13:16:02;9.40;;;6.88;;
58637;SDS011;54976;51.510;7.522;2023-05-10T13:19:03;9.65;;;6.50;;
58637;SDS011;54976;51.510;7.522;2023-05-10T13:22:04;7.85;;;5.65;;
58637;SDS011;54976;51.510;7.522;2023-05-10T13:25:04;13.70;;;6.50;;
58637;SDS011;54976;51.510;7.522;2023-05-10T13:28:05;10.80;;;6.18;;
58637;SDS011;54976;51.510;7.522;2023-05-10T13:31:06;10.32;;;6.90;;
58637;SDS011;54976;51.510;7.522;2023-05-10T13:34:07;10.15;;;7.90;;
58637;SDS011;54976;51.510;7.522;2023-05-10T13:37:07;10.00;;;7.03;;
58637;SDS011;54976;51.510;7.522;2023-05-10T13:40:08;8.63;;;6.80;;
58637;SDS011;54976;51.510;7.522;2023-05-10T13:43:09;12.30;;;7.40;;
58637;SDS011;54976;51.510;7.522;2023-05-10T13:46:10;14.23;;;7.85;;
58637;SDS011;54976;51.510;7.522;2023-05-10T13:49:10;12.63;;;7.53;;
58637;SDS011;54976;51.510;7.522;2023-05-10T13:52:11;20.98;;;8.45;;
58637;SDS011;54976;51.510;7.522;2023-05-10T13:55:12;14.38;;;7.40;;
58637;SDS011;54976;51.510;7.522;2023-05-10T13:58:13;12.85;;;7.15;;
58637;SDS011;54976;51.510;7.522;2023-05-10T14:01:13;11.32;;;6.97;;
58637;SDS011;54976;51.510;7.522;2023-05-10T14:04:14;10.50;;;7.20;;
58637;SDS011;54976;51.510;7.522;2023-05-10T14:07:15;12.35;;;7.30;;
58637;SDS011;54976;51.510;7.522;2023-05-10T14:10:15;13.50;;;7.45;;
58637;SDS011;54976;51.510;7.522;2023-05-10T14:13:16;11.65;;;7.40;;
58637;SDS011;54976;51.510;7.522;2023-05-10T14:16:16;11.25;;;7.10;;
58637;SDS011;54976;51.510;7.522;2023-05-10T14:19:17;13.30;;;7.70;;
58637;SDS011;54976;51.510;7.522;2023-05-10T14:22:18;11.18;;;6.63;;
58637;SDS011;54976;51.510;7.522;2023-05-10T14:25:18;6.43;;;4.97;;
58637;SDS011;54976;51.510;7.522;2023-05-10T14:28:19;5.82;;;3.92;;
58637;SDS011;54976;51.510;7.522;2023-05-10T14:31:20;7.18;;;3.45;;
58637;SDS011;54976;51.510;7.522;2023-05-10T14:34:21;4.65;;;3.83;;
58637;SDS011;54976;51.510;7.522;2023-05-10T14:37:22;7.00;;;4.25;;
58637;SDS011;54976;51.510;7.522;2023-05-10T14:40:22;6.28;;;4.65;;
58637;SDS011;54976;51.510;7.522;2023-05-10T14:43:23;4.88;;;4.05;;
58637;SDS011;54976;51.510;7.522;2023-05-10T14:46:24;5.90;;;3.63;;
58637;SDS011;54976;51.510;7.522;2023-05-10T14:49:24;7.85;;;3.60;;
58637;SDS011;54976;51.510;7.522;2023-05-10T14:52:26;3.97;;;3.30;;
58637;SDS011;54976;51.510;7.522;2023-05-10T14:55:26;6.25;;;3.90;;
58637;SDS011;54976;51.510;7.522;2023-05-10T14:58:27;7.38;;;4.00;;
58637;SDS011;54976;51.510;7.522;2023-05-10T15:01:28;5.63;;;4.00;;
58637;SDS011;54976;51.510;7.522;2023-05-10T15:04:28;4.43;;;3.25;;
58637;SDS011;54976;51.510;7.522;2023-05-10T15:07:29;4.25;;;3.75;;
58637;SDS011;54976;51.510;7.522;2023-05-10T15:10:31;3.72;;;3.03;;
58637;SDS011;54976;51.510;7.522;2023-05-10T15:13:32;4.10;;;3.22;;
58637;SDS011;54976;51.510;7.522;2023-05-10T15:16:33;6.32;;;2.38;;
58637;SDS011;54976;51.510;7.522;2023-05-10T15:19:33;2.95;;;2.60;;
58637;SDS011;54976;51.510;7.522;2023-05-10T15:22:34;4.20;;;2.58;;
58637;SDS011;54976;51.510;7.522;2023-05-10T15:25:35;3.80;;;2.08;;
58637;SDS011;54976;51.510;7.522;2023-05-10T15:28:37;4.57;;;2.25;;
58637;SDS011;54976;51.510;7.522;2023-05-10T15:31:37;2.25;;;2.00;;
58637;SDS011;54976;51.510;7.522;2023-05-10T15:34:39;6.55;;;2.35;;
58637;SDS011;54976;51.510;7.522;2023-05-10T15:37:40;3.58;;;2.58;;
58637;SDS011;54976;51.510;7.522;2023-05-10T15:40:40;3.90;;;2.13;;
58637;SDS011;54976;51.510;7.522;2023-05-10T15:43:41;4.28;;;2.70;;
58637;SDS011;54976;51.510;7.522;2023-05-10T15:46:41;4.18;;;2.28;;
58637;SDS011;54976;51.510;7.522;2023-05-10T15:49:42;9.02;;;2.85;;
58637;SDS011;54976;51.510;7.522;2023-05-10T15:52:43;7.43;;;2.75;;
58637;SDS011;54976;51.510;7.522;2023-05-10T15:55:43;7.80;;;2.97;;
58637;SDS011;54976;51.510;7.522;2023-05-10T15:58:44;3.17;;;2.08;;
58637;SDS011;54976;51.510;7.522;2023-05-10T16:01:45;4.28;;;2.25;;
58637;SDS011;54976;51.510;7.522;2023-05-10T16:04:45;5.40;;;2.97;;
58637;SDS011;54976;51.510;7.522;2023-05-10T16:07:46;3.30;;;2.75;;
58637;SDS011;54976;51.510;7.522;2023-05-10T16:10:48;6.30;;;3.33;;
58637;SDS011;54976;51.510;7.522;2023-05-10T16:13:50;5.43;;;2.80;;
58637;SDS011;54976;51.510;7.522;2023-05-10T16:16:51;3.75;;;3.05;;
58637;SDS011;54976;51.510;7.522;2023-05-10T16:19:52;5.30;;;3.13;;
58637;SDS011;54976;51.510;7.522;2023-05-10T16:22:52;4.65;;;3.03;;
58637;SDS011;54976;51.510;7.522;2023-05-10T16:25:53;5.28;;;3.00;;
58637;SDS011;54976;51.510;7.522;2023-05-10T16:28:54;4.97;;;3.38;;
58637;SDS011;54976;51.510;7.522;2023-05-10T16:31:55;3.88;;;3.05;;
58637;SDS011;54976;51.510;7.522;2023-05-10T16:34:55;6.07;;;3.40;;
58637;SDS011;54976;51.510;7.522;2023-05-10T16:37:56;7.55;;;3.60;;
58637;SDS011;54976;51.510;7.522;2023-05-10T16:40:56;6.22;;;3.28;;
58637;SDS011;54976;51.510;7.522;2023-05-10T16:43:57;5.03;;;3.88;;
58637;SDS011;54976;51.510;7.522;2023-05-10T16:46:58;6.43;;;3.67;;
58637;SDS011;54976;51.510;7.522;2023-05-10T16:49:59;6.03;;;3.72;;
58637;SDS011;54976;51.510;7.522;2023-05-10T16:53:01;8.32;;;3.80;;
58637;SDS011;54976;51.510;7.522;2023-05-10T16:56:02;5.38;;;4.05;;
58637;SDS011;54976;51.510;7.522;2023-05-10T16:59:02;11.02;;;5.57;;
58637;SDS011;54976;51.510;7.522;2023-05-10T17:02:03;13.13;;;7.13;;
58637;SDS011;54976;51.510;7.522;2023-05-10T17:05:04;13.02;;;7.05;;
58637;SDS011;54976;51.510;7.522;2023-05-10T17:08:04;10.48;;;7.30;;
58637;SDS011;54976;51.510;7.522;2023-05-10T17:11:05;11.25;;;7.88;;
58637;SDS011;54976;51.510;7.522;2023-05-10T17:14:06;10.90;;;7.20;;
58637;SDS011;54976;51.510;7.522;2023-05-10T17:17:06;12.23;;;8.35;;
58637;SDS011;54976;51.510;7.522;2023-05-10T17:20:07;11.45;;;7.10;;
58637;SDS011;54976;51.510;7.522;2023-05-10T17:23:08;14.10;;;7.57;;
58637;SDS011;54976;51.510;7.522;2023-05-10T17:26:08;11.43;;;7.63;;
58637;SDS011;54976;51.510;7.522;2023-05-10T17:29:09;12.07;;;8.15;;
58637;SDS011;54976;51.510;7.522;2023-05-10T17:32:10;13.68;;;8.73;;
58637;SDS011;54976;51.510;7.522;2023-05-10T17:35:10;10.68;;;7.80;;
58637;SDS011;54976;51.510;7.522;2023-05-10T17:38:11;10.40;;;7.15;;
58637;SDS011;54976;51.510;7.522;2023-05-10T17:41:13;11.70;;;7.90;;
58637;SDS011;54976;51.510;7.522;2023-05-10T17:44:13;10.57;;;7.53;;
58637;SDS011;54976;51.510;7.522;2023-05-10T17:47:14;14.05;;;7.93;;
58637;SDS011;54976;51.510;7.522;2023-05-10T17:50:15;10.93;;;7.60;;
58637;SDS011;54976;51.510;7.522;2023-05-10T17:53:15;13.90;;;8.35;;
58637;SDS011;54976;51.510;7.522;2023-05-10T17:56:16;14.23;;;8.02;;
58637;SDS011;54976;51.510;7.522;2023-05-10T17:59:17;14.70;;;7.40;;
58637;SDS011;54976;51.510;7.522;2023-05-10T18:02:17;11.82;;;8.52;;
58637;SDS011;54976;51.510;7.522;2023-05-10T18:05:18;13.05;;;10.10;;
58637;SDS011;54976;51.510;7.522;2023-05-10T18:08:19;12.15;;;10.02;;
58637;SDS011;54976;51.510;7.522;2023-05-10T18:11:21;15.68;;;10.98;;
58637;SDS011;54976;51.510;7.522;2023-05-10T18:14:22;16.70;;;12.00;;
58637;SDS011;54976;51.510;7.522;2023-05-10T18:17:26;20.23;;;13.57;;
58637;SDS011;54976;51.510;7.522;2023-05-10T18:20:27;22.80;;;15.60;;
58637;SDS011;54976;51.510;7.522;2023-05-10T18:23:28;24.40;;;16.10;;
58637;SDS011;54976;51.510;7.522;2023-05-10T18:26:28;28.80;;;18.55;;
58637;SDS011;54976;51.510;7.522;2023-05-10T18:29:29;29.75;;;18.92;;
58637;SDS011;54976;51.510;7.522;2023-05-10T18:32:30;29.77;;;18.75;;